createdAt,value
2019-02-24T00:00:58.172Z,6.85
2019-02-24T00:02:29.450Z,5.73
2019-02-24T00:04:01.574Z,4.67
2019-02-24T00:05:32.935Z,4.47
2019-02-24T00:07:04.227Z,6.20
2019-02-24T00:08:36.104Z,5.65
2019-02-24T00:10:07.917Z,6.87
2019-02-24T00:11:39.273Z,8.13
2019-02-24T00:13:11.170Z,7.28
2019-02-24T00:14:42.490Z,6.13
2019-02-24T00:16:14.913Z,5.00
2019-02-24T00:17:46.836Z,6.33
2019-02-24T00:19:19.191Z,5.08
2019-02-24T00:20:51.077Z,5.28
2019-02-24T00:22:22.352Z,5.20
2019-02-24T00:23:53.659Z,4.10
2019-02-24T00:25:25.497Z,5.30
2019-02-24T00:26:56.822Z,5.87
2019-02-24T00:28:28.728Z,4.22
2019-02-24T00:30:00.002Z,4.17
2019-02-24T00:31:32.355Z,4.50
2019-02-24T00:33:03.667Z,4.17
2019-02-24T00:34:35.983Z,4.12
2019-02-24T00:36:07.282Z,4.43
2019-02-24T00:37:38.575Z,4.20
2019-02-24T00:39:09.878Z,4.80
2019-02-24T00:40:42.193Z,5.75
2019-02-24T00:42:14.065Z,5.08
2019-02-24T00:43:45.960Z,5.55
2019-02-24T00:45:17.265Z,5.67
2019-02-24T00:46:49.408Z,4.65
2019-02-24T00:48:21.287Z,4.58
2019-02-24T00:49:52.983Z,4.40
2019-02-24T00:51:24.856Z,4.03
2019-02-24T00:52:56.782Z,4.08
2019-02-24T00:54:28.683Z,4.08
2019-02-24T00:56:00.760Z,4.25
2019-02-24T00:57:32.073Z,4.90
2019-02-24T00:59:03.409Z,4.30
2019-02-24T01:00:34.690Z,5.73
2019-02-24T01:02:06.987Z,5.03
2019-02-24T01:03:38.290Z,5.67
2019-02-24T01:05:10.028Z,5.40
2019-02-24T01:06:41.304Z,4.57
2019-02-24T01:08:12.628Z,6.90
2019-02-24T01:09:43.945Z,7.47
2019-02-24T01:11:15.559Z,7.07
2019-02-24T01:12:46.860Z,4.47
2019-02-24T01:14:18.174Z,4.10
2019-02-24T01:15:49.455Z,4.70
2019-02-24T01:17:21.137Z,5.33
2019-02-24T01:18:52.437Z,5.07
2019-02-24T01:20:23.723Z,4.93
2019-02-24T01:21:55.021Z,6.87
2019-02-24T01:23:29.409Z,7.43
2019-02-24T01:25:00.685Z,7.10
2019-02-24T01:26:32.003Z,5.90
2019-02-24T01:28:03.343Z,5.17
2019-02-24T01:29:34.931Z,6.13
2019-02-24T01:31:06.229Z,5.23
2019-02-24T01:32:37.545Z,5.07
2019-02-24T01:34:08.858Z,4.70
2019-02-24T01:35:40.400Z,5.40
2019-02-24T01:37:11.670Z,4.10
2019-02-24T01:38:43.004Z,6.63
2019-02-24T01:40:14.881Z,5.65
2019-02-24T01:41:46.487Z,6.30
2019-02-24T01:43:18.361Z,5.92
2019-02-24T01:44:50.271Z,6.35
2019-02-24T01:46:21.554Z,6.13
2019-02-24T01:47:52.971Z,4.77
2019-02-24T01:49:24.288Z,5.87
2019-02-24T01:50:56.207Z,4.70
2019-02-24T01:52:27.565Z,5.13
2019-02-24T01:53:59.760Z,6.72
2019-02-24T01:55:31.061Z,7.50
2019-02-24T01:57:02.371Z,7.30
2019-02-24T01:58:35.372Z,6.63
2019-02-24T02:00:07.605Z,6.20
2019-02-24T02:01:38.895Z,6.60
2019-02-24T02:03:10.202Z,8.90
2019-02-24T02:04:41.519Z,7.67
2019-02-24T02:06:13.152Z,9.00
2019-02-24T02:07:45.050Z,7.12
2019-02-24T02:09:18.659Z,6.65
2019-02-24T02:10:49.982Z,6.23
2019-02-24T02:12:22.358Z,6.08
2019-02-24T02:13:53.685Z,5.97
2019-02-24T02:15:24.981Z,4.70
2019-02-24T02:16:56.342Z,5.20
2019-02-24T02:18:27.910Z,5.07
2019-02-24T02:19:59.196Z,5.27
2019-02-24T02:21:31.532Z,4.78
2019-02-24T02:23:02.851Z,5.65
2019-02-24T02:24:34.187Z,5.90
2019-02-24T02:26:05.516Z,6.97
2019-02-24T02:27:37.077Z,6.70
2019-02-24T02:29:08.358Z,6.47
2019-02-24T02:30:39.715Z,7.20
2019-02-24T02:32:11.033Z,5.90
2019-02-24T02:33:42.604Z,7.17
2019-02-24T02:35:13.940Z,7.97
2019-02-24T02:36:46.257Z,7.95
2019-02-24T02:38:18.139Z,6.75
2019-02-24T02:39:49.486Z,8.17
2019-02-24T02:41:21.392Z,7.78
2019-02-24T02:42:53.727Z,7.10
2019-02-24T02:44:25.591Z,6.95
2019-02-24T02:45:57.536Z,8.73
2019-02-24T02:47:28.826Z,7.33
2019-02-24T02:49:00.673Z,7.07
2019-02-24T02:50:31.982Z,7.40
2019-02-24T02:52:03.683Z,5.63
2019-02-24T02:53:35.602Z,6.30
2019-02-24T02:55:07.485Z,5.33
2019-02-24T02:56:38.801Z,7.27
2019-02-24T02:58:10.594Z,5.97
2019-02-24T02:59:41.957Z,6.05
2019-02-24T03:01:13.887Z,6.58
2019-02-24T03:02:45.739Z,7.47
2019-02-24T03:04:17.354Z,6.80
2019-02-24T03:05:49.298Z,7.42
2019-02-24T03:07:21.512Z,6.70
2019-02-24T03:08:52.798Z,8.50
2019-02-24T03:10:24.090Z,8.07
2019-02-24T03:11:56.033Z,7.40
2019-02-24T03:13:27.578Z,6.97
2019-02-24T03:14:59.439Z,5.90
2019-02-24T03:16:30.756Z,6.40
2019-02-24T03:18:02.130Z,6.83
2019-02-24T03:19:33.685Z,7.13
2019-02-24T03:21:05.582Z,10.15
2019-02-24T03:22:37.334Z,6.90
2019-02-24T03:24:09.187Z,7.03
2019-02-24T03:25:41.074Z,7.12
2019-02-24T03:27:13.006Z,7.67
2019-02-24T03:28:45.236Z,8.95
2019-02-24T03:30:17.153Z,8.68
2019-02-24T03:31:48.453Z,6.50
2019-02-24T03:33:19.785Z,5.87
2019-02-24T03:34:51.393Z,4.90
2019-02-24T03:36:23.249Z,5.58
2019-02-24T03:37:55.646Z,5.42
2019-02-24T03:39:26.999Z,5.03
2019-02-24T03:40:58.884Z,4.67
2019-02-24T03:42:30.756Z,5.30
2019-02-24T03:44:03.094Z,5.75
2019-02-24T03:45:34.998Z,5.92
2019-02-24T03:47:06.890Z,5.20
2019-02-24T03:48:38.782Z,5.65
2019-02-24T03:50:10.585Z,5.77
2019-02-24T03:51:42.450Z,5.50
2019-02-24T03:53:13.801Z,5.27
2019-02-24T03:54:45.688Z,6.60
2019-02-24T03:56:17.428Z,5.90
2019-02-24T03:57:48.738Z,10.33
2019-02-24T03:59:20.071Z,10.57
2019-02-24T04:00:51.420Z,11.30
2019-02-24T04:02:23.821Z,10.20
2019-02-24T04:03:55.093Z,8.97
2019-02-24T04:05:27.058Z,7.17
2019-02-24T04:06:58.903Z,7.00
2019-02-24T04:08:30.451Z,9.18
2019-02-24T04:10:01.788Z,9.47
2019-02-24T04:11:33.697Z,6.97
2019-02-24T04:13:05.575Z,7.60
2019-02-24T04:14:37.295Z,6.80
2019-02-24T04:16:08.595Z,6.80
2019-02-24T04:17:39.910Z,6.17
2019-02-24T04:19:11.807Z,6.80
2019-02-24T04:20:43.291Z,10.20
2019-02-24T04:22:14.598Z,10.57
2019-02-24T04:23:46.822Z,16.80
2019-02-24T04:25:18.733Z,6.55
2019-02-24T04:26:50.087Z,6.90
2019-02-24T04:28:24.123Z,7.07
2019-02-24T04:29:56.372Z,7.20
2019-02-24T04:31:27.658Z,8.80
2019-02-24T04:32:59.026Z,10.67
2019-02-24T04:34:30.357Z,9.47
2019-02-24T04:36:01.956Z,8.37
2019-02-24T04:37:33.254Z,9.27
2019-02-24T04:39:05.039Z,11.17
2019-02-24T04:40:36.306Z,8.03
2019-02-24T04:42:07.594Z,7.93
2019-02-24T04:43:38.997Z,10.40
2019-02-24T04:45:11.159Z,11.85
2019-02-24T04:46:43.068Z,10.90
2019-02-24T04:48:14.372Z,9.83
2019-02-24T04:49:46.257Z,9.43
2019-02-24T04:51:18.515Z,9.10
2019-02-24T04:52:50.378Z,7.97
2019-02-24T04:54:22.555Z,6.95
2019-02-24T04:55:53.886Z,7.50
2019-02-24T04:57:25.240Z,13.80
2019-02-24T04:58:56.542Z,13.40
2019-02-24T05:00:28.204Z,13.10
2019-02-24T05:01:59.490Z,12.83
2019-02-24T05:03:31.423Z,12.40
2019-02-24T05:05:02.739Z,12.73
2019-02-24T05:06:34.320Z,10.03
2019-02-24T05:08:05.611Z,9.57
2019-02-24T05:09:37.283Z,11.80
2019-02-24T05:11:08.615Z,10.53
2019-02-24T05:12:39.923Z,13.70
2019-02-24T05:14:11.801Z,11.48
2019-02-24T05:15:43.333Z,11.47
2019-02-24T05:17:14.647Z,15.03
2019-02-24T05:18:45.923Z,10.30
2019-02-24T05:20:17.839Z,10.63
2019-02-24T05:21:49.561Z,9.93
2019-02-24T05:23:20.836Z,12.23
2019-02-24T05:24:52.139Z,17.00
2019-02-24T05:26:24.078Z,18.25
2019-02-24T05:27:55.683Z,15.17
2019-02-24T05:29:27.580Z,19.57
2019-02-24T05:30:58.958Z,12.80
2019-02-24T05:32:30.252Z,10.87
2019-02-24T05:34:01.821Z,12.10
2019-02-24T05:35:33.135Z,11.00
2019-02-24T05:37:04.467Z,16.63
2019-02-24T05:38:35.755Z,20.07
2019-02-24T05:40:07.278Z,19.80
2019-02-24T05:41:38.569Z,17.33
2019-02-24T05:43:09.878Z,16.10
2019-02-24T05:44:41.204Z,19.50
2019-02-24T05:46:12.631Z,15.20
2019-02-24T05:47:43.989Z,10.53
2019-02-24T05:49:15.285Z,6.10
2019-02-24T05:50:46.619Z,7.73
2019-02-24T05:52:18.139Z,8.20
2019-02-24T05:53:49.497Z,11.20
2019-02-24T05:55:20.998Z,7.33
2019-02-24T05:56:52.340Z,15.00
2019-02-24T05:58:23.642Z,14.57
2019-02-24T05:59:55.568Z,25.83
2019-02-24T06:01:27.244Z,21.53
2019-02-24T06:02:58.593Z,22.20
2019-02-24T06:04:29.943Z,17.23
2019-02-24T06:06:01.249Z,15.30
2019-02-24T06:07:33.434Z,9.53
2019-02-24T06:09:04.755Z,8.30
2019-02-24T06:10:36.538Z,12.07
2019-02-24T06:12:08.470Z,9.55
2019-02-24T06:13:40.345Z,14.75
2019-02-24T06:15:11.639Z,12.87
2019-02-24T06:16:44.883Z,9.30
2019-02-24T06:18:16.237Z,11.87
2019-02-24T06:19:47.549Z,11.13
2019-02-24T06:21:18.856Z,12.77
2019-02-24T06:22:51.265Z,13.30
2019-02-24T06:24:22.563Z,10.17
2019-02-24T06:25:54.294Z,9.57
2019-02-24T06:27:25.589Z,14.10
2019-02-24T06:28:56.917Z,25.63
2019-02-24T06:30:28.215Z,14.57
2019-02-24T06:31:59.719Z,11.67
2019-02-24T06:33:31.013Z,10.47
2019-02-24T06:35:02.341Z,10.83
2019-02-24T06:36:33.631Z,10.20
2019-02-24T06:38:05.301Z,9.83
2019-02-24T06:39:36.593Z,9.97
2019-02-24T06:41:08.308Z,9.90
2019-02-24T06:42:39.629Z,8.87
2019-02-24T06:44:10.921Z,8.97
2019-02-24T06:45:42.808Z,9.90
2019-02-24T06:47:15.090Z,9.98
2019-02-24T06:48:46.373Z,9.47
2019-02-24T06:50:18.257Z,12.28
2019-02-24T06:51:49.549Z,10.23
2019-02-24T06:53:21.748Z,9.93
2019-02-24T06:54:53.626Z,8.88
2019-02-24T06:56:24.940Z,9.60
2019-02-24T06:57:56.260Z,15.53
2019-02-24T06:59:28.068Z,14.03
2019-02-24T07:00:59.962Z,10.28
2019-02-24T07:02:33.185Z,10.78
2019-02-24T07:04:05.039Z,15.13
2019-02-24T07:05:36.615Z,8.93
2019-02-24T07:07:08.504Z,11.15
2019-02-24T07:08:40.438Z,9.48
2019-02-24T07:10:11.741Z,9.17
2019-02-24T07:11:43.363Z,24.80
2019-02-24T07:13:15.324Z,17.57
2019-02-24T07:14:46.598Z,10.03
2019-02-24T07:16:18.471Z,14.93
2019-02-24T07:17:50.025Z,12.10
2019-02-24T07:19:21.936Z,8.55
2019-02-24T07:20:53.227Z,8.17
2019-02-24T07:22:25.138Z,10.38
2019-02-24T07:23:56.836Z,12.37
2019-02-24T07:25:28.177Z,13.47
2019-02-24T07:27:00.350Z,15.40
2019-02-24T07:28:31.641Z,10.57
2019-02-24T07:30:03.507Z,9.25
2019-02-24T07:31:35.458Z,12.15
2019-02-24T07:33:07.805Z,13.50
2019-02-24T07:34:39.126Z,12.23
2019-02-24T07:36:11.059Z,11.45
2019-02-24T07:37:42.972Z,14.03
2019-02-24T07:39:14.440Z,13.40
2019-02-24T07:40:46.337Z,14.18
2019-02-24T07:42:18.457Z,12.55
2019-02-24T07:43:49.766Z,13.90
2019-02-24T07:45:21.671Z,14.40
2019-02-24T07:46:52.958Z,10.47
2019-02-24T07:48:24.396Z,10.60
2019-02-24T07:49:55.818Z,9.57
2019-02-24T07:51:27.749Z,9.78
2019-02-24T07:52:59.613Z,11.00
2019-02-24T07:54:31.364Z,12.23
2019-02-24T07:56:02.684Z,10.63
2019-02-24T07:57:34.536Z,9.20
2019-02-24T07:59:05.832Z,13.17
2019-02-24T08:00:38.433Z,15.68
2019-02-24T08:02:09.711Z,11.10
2019-02-24T08:03:41.613Z,14.18
2019-02-24T08:05:13.509Z,8.90
2019-02-24T08:06:45.825Z,9.58
2019-02-24T08:08:17.721Z,12.18
2019-02-24T08:09:49.586Z,12.45
2019-02-24T08:11:21.479Z,10.72
2019-02-24T08:12:53.635Z,9.70
2019-02-24T08:14:25.522Z,15.35
2019-02-24T08:15:57.422Z,12.47
2019-02-24T08:17:29.322Z,11.40
2019-02-24T08:19:01.461Z,14.20
2019-02-24T08:20:33.505Z,22.75
2019-02-24T08:22:05.406Z,8.68
2019-02-24T08:23:37.283Z,9.30
2019-02-24T08:25:09.337Z,13.45
2019-02-24T08:26:41.307Z,10.70
2019-02-24T08:28:13.203Z,11.25
2019-02-24T08:29:45.079Z,9.13
2019-02-24T08:31:17.258Z,14.13
2019-02-24T08:32:49.194Z,12.47
2019-02-24T08:34:21.071Z,10.03
2019-02-24T08:35:52.973Z,6.83
2019-02-24T08:37:25.035Z,8.43
2019-02-24T08:38:56.963Z,6.80
2019-02-24T08:40:28.839Z,10.08
2019-02-24T08:42:00.767Z,14.68
2019-02-24T08:43:32.899Z,17.30
2019-02-24T08:45:04.825Z,6.40
2019-02-24T08:46:36.757Z,15.48
2019-02-24T08:48:08.698Z,11.33
2019-02-24T08:49:40.743Z,9.85
2019-02-24T08:51:12.660Z,10.88
2019-02-24T08:52:44.565Z,13.13
2019-02-24T08:54:16.465Z,11.25
2019-02-24T08:55:48.477Z,7.55
2019-02-24T08:57:20.413Z,10.65
2019-02-24T08:58:52.566Z,4.95
2019-02-24T09:00:24.426Z,7.22
2019-02-24T09:01:56.367Z,19.95
2019-02-24T09:03:27.659Z,8.30
2019-02-24T09:04:59.901Z,16.37
2019-02-24T09:06:31.278Z,7.70
2019-02-24T09:08:03.197Z,11.73
2019-02-24T09:09:35.130Z,11.75
2019-02-24T09:11:07.330Z,8.90
2019-02-24T09:12:39.223Z,7.90
2019-02-24T09:14:10.997Z,15.07
2019-02-24T09:15:42.957Z,13.20
2019-02-24T09:17:14.832Z,13.68
2019-02-24T09:18:46.727Z,12.10
2019-02-24T09:20:19.076Z,14.38
2019-02-24T09:21:50.996Z,7.83
2019-02-24T09:23:22.900Z,9.33
2019-02-24T09:24:54.236Z,11.87
2019-02-24T09:26:26.339Z,11.40
2019-02-24T09:27:58.223Z,7.92
2019-02-24T09:29:30.590Z,7.05
2019-02-24T09:31:02.497Z,78.97
2019-02-24T09:32:34.440Z,26.30
2019-02-24T09:34:06.378Z,16.30
2019-02-24T09:35:38.538Z,7.03
2019-02-24T09:37:10.420Z,10.40
2019-02-24T09:38:42.379Z,8.78
2019-02-24T09:40:14.247Z,14.07
2019-02-24T09:41:46.403Z,11.05
2019-02-24T09:43:18.350Z,12.05
2019-02-24T09:44:51.993Z,12.68
2019-02-24T09:46:23.884Z,8.53
2019-02-24T09:47:55.750Z,10.65
2019-02-24T09:49:27.690Z,16.80
2019-02-24T09:51:00.092Z,14.47
2019-02-24T09:52:31.968Z,17.37
2019-02-24T09:54:03.850Z,9.95
2019-02-24T09:55:35.778Z,9.18
2019-02-24T09:57:07.810Z,9.68
2019-02-24T09:58:39.687Z,15.15
2019-02-24T10:00:11.903Z,17.65
2019-02-24T10:01:43.259Z,7.10
2019-02-24T10:03:15.178Z,6.60
2019-02-24T10:04:47.072Z,4.92
2019-02-24T10:06:19.396Z,4.58
2019-02-24T10:07:51.320Z,6.00
2019-02-24T10:09:23.220Z,8.08
2019-02-24T10:10:55.127Z,9.85
2019-02-24T10:12:27.304Z,11.55
2019-02-24T10:14:01.126Z,10.93
2019-02-24T10:15:33.045Z,8.53
2019-02-24T10:17:04.923Z,10.65
2019-02-24T10:18:37.265Z,9.38
2019-02-24T10:20:09.173Z,9.33
2019-02-24T10:21:41.114Z,10.88
2019-02-24T10:23:13.014Z,11.70
2019-02-24T10:24:45.163Z,16.62
2019-02-24T10:26:17.090Z,16.37
2019-02-24T10:27:48.999Z,18.42
2019-02-24T10:29:20.882Z,14.75
2019-02-24T10:30:52.406Z,20.93
2019-02-24T10:32:23.739Z,10.93
2019-02-24T10:33:55.634Z,11.30
2019-02-24T10:35:27.285Z,9.80
2019-02-24T10:36:59.624Z,8.63
2019-02-24T10:38:31.539Z,7.92
2019-02-24T10:40:03.448Z,10.60
2019-02-24T10:41:35.307Z,5.45
2019-02-24T10:43:10.248Z,8.28
2019-02-24T10:44:41.601Z,16.87
2019-02-24T10:46:13.950Z,10.15
2019-02-24T10:47:45.227Z,14.03
2019-02-24T10:49:16.533Z,6.43
2019-02-24T10:50:47.831Z,6.70
2019-02-24T10:52:19.962Z,17.70
2019-02-24T10:53:51.863Z,15.75
2019-02-24T10:55:23.731Z,6.92
2019-02-24T10:56:55.664Z,25.20
2019-02-24T10:58:34.490Z,26.77
2019-02-24T11:00:00.757Z,12.33
2019-02-24T11:01:33.051Z,7.60
2019-02-24T11:03:04.987Z,7.15
2019-02-24T11:04:36.872Z,12.03
2019-02-24T11:06:08.741Z,5.08
2019-02-24T11:07:40.763Z,7.30
2019-02-24T11:09:12.667Z,6.20
2019-02-24T11:10:47.307Z,9.25
2019-02-24T11:12:19.197Z,5.95
2019-02-24T11:13:51.305Z,7.53
2019-02-24T11:15:23.224Z,14.47
2019-02-24T11:16:55.407Z,12.15
2019-02-24T11:18:26.736Z,13.70
2019-02-24T11:19:58.650Z,16.48
2019-02-24T11:21:30.535Z,20.10
2019-02-24T11:23:02.934Z,16.27
2019-02-24T11:24:34.846Z,11.50
2019-02-24T11:26:06.686Z,15.28
2019-02-24T11:27:38.621Z,11.78
2019-02-24T11:29:10.865Z,9.00
2019-02-24T11:30:42.755Z,9.10
2019-02-24T11:32:14.634Z,6.53
2019-02-24T11:33:46.531Z,8.90
2019-02-24T11:35:18.718Z,9.40
2019-02-24T11:36:50.648Z,8.55
2019-02-24T11:38:22.538Z,8.48
2019-02-24T11:39:54.443Z,5.47
2019-02-24T11:41:25.949Z,4.43
2019-02-24T11:42:58.683Z,20.35
2019-02-24T11:44:30.888Z,8.53
2019-02-24T11:46:02.800Z,10.35
2019-02-24T11:47:34.841Z,13.53
2019-02-24T11:49:06.744Z,10.25
2019-02-24T11:50:38.644Z,11.45
2019-02-24T11:52:10.527Z,17.92
2019-02-24T11:53:42.688Z,12.78
2019-02-24T11:55:14.611Z,17.55
2019-02-24T11:56:46.490Z,6.33
2019-02-24T11:58:18.389Z,7.72
2019-02-24T11:59:51.513Z,9.03
2019-02-24T12:01:23.400Z,9.50
2019-02-24T12:02:55.281Z,8.90
2019-02-24T12:04:27.140Z,7.33
2019-02-24T12:05:59.172Z,7.17
2019-02-24T12:07:31.093Z,7.55
2019-02-24T12:09:05.400Z,6.08
2019-02-24T12:10:37.462Z,9.05
2019-02-24T12:12:09.760Z,5.70
2019-02-24T12:13:41.634Z,4.30
2019-02-24T12:15:13.523Z,8.08
2019-02-24T12:16:45.484Z,6.85
2019-02-24T12:18:17.535Z,7.55
2019-02-24T12:19:49.425Z,9.38
2019-02-24T12:21:21.401Z,16.80
2019-02-24T12:22:53.312Z,8.83
2019-02-24T12:24:25.688Z,12.20
2019-02-24T12:25:57.593Z,12.60
2019-02-24T12:27:29.486Z,10.68
2019-02-24T12:29:00.832Z,11.80
2019-02-24T12:30:32.937Z,6.53
2019-02-24T12:32:06.149Z,13.72
2019-02-24T12:33:38.626Z,12.13
2019-02-24T12:35:10.539Z,11.95
2019-02-24T12:36:42.442Z,8.50
2019-02-24T12:38:14.369Z,7.92
2019-02-24T12:39:46.488Z,14.03
2019-02-24T12:41:18.381Z,17.02
2019-02-24T12:42:50.282Z,11.55
2019-02-24T12:44:22.222Z,17.82
2019-02-24T12:45:54.447Z,21.40
2019-02-24T12:47:26.341Z,11.18
2019-02-24T12:48:58.594Z,9.15
2019-02-24T12:50:30.521Z,18.50
2019-02-24T12:52:02.396Z,16.17
2019-02-24T12:53:34.287Z,17.23
2019-02-24T12:55:06.696Z,13.98
2019-02-24T12:56:38.016Z,9.93
2019-02-24T12:58:09.954Z,10.78
2019-02-24T12:59:41.874Z,9.65
2019-02-24T13:01:13.984Z,8.83
2019-02-24T13:02:45.917Z,8.78
2019-02-24T13:04:18.014Z,8.78
2019-02-24T13:05:49.883Z,6.75
2019-02-24T13:07:21.205Z,8.73
2019-02-24T13:08:53.209Z,9.38
2019-02-24T13:10:24.903Z,10.43
2019-02-24T13:11:56.785Z,23.55
2019-02-24T13:13:28.092Z,15.53
2019-02-24T13:14:59.447Z,9.37
2019-02-24T13:16:31.219Z,12.10
2019-02-24T13:18:02.535Z,21.37
2019-02-24T13:19:33.994Z,9.90
2019-02-24T13:21:05.412Z,22.27
2019-02-24T13:22:36.729Z,8.67
2019-02-24T13:24:08.641Z,11.38
2019-02-24T13:25:40.144Z,8.10
2019-02-24T13:27:13.182Z,9.07
2019-02-24T13:28:50.505Z,10.03
2019-02-24T13:30:17.443Z,10.10
2019-02-24T13:31:48.923Z,10.15
2019-02-24T13:33:20.865Z,5.22
2019-02-24T13:34:52.336Z,8.30
2019-02-24T13:36:23.636Z,5.03
2019-02-24T13:37:54.984Z,5.80
2019-02-24T13:39:26.315Z,10.80
2019-02-24T13:40:58.534Z,7.33
2019-02-24T13:42:30.433Z,6.17
2019-02-24T13:44:02.377Z,7.00
2019-02-24T13:45:34.267Z,9.55
2019-02-24T13:47:06.414Z,9.73
2019-02-24T13:48:38.333Z,8.53
2019-02-24T13:50:10.419Z,11.25
2019-02-24T13:51:42.327Z,9.75
2019-02-24T13:53:14.214Z,12.35
2019-02-24T13:54:45.512Z,10.60
2019-02-24T13:56:17.738Z,11.12
2019-02-24T13:57:49.699Z,13.58
2019-02-24T13:59:23.729Z,20.45
2019-02-24T14:00:55.546Z,10.15
2019-02-24T14:02:27.617Z,14.45
2019-02-24T14:03:59.536Z,27.73
2019-02-24T14:05:31.875Z,23.25
2019-02-24T14:07:03.226Z,13.90
2019-02-24T14:08:34.605Z,13.60
2019-02-24T14:10:06.498Z,12.58
2019-02-24T14:11:37.998Z,17.40
2019-02-24T14:13:09.948Z,9.63
2019-02-24T14:14:48.879Z,12.37
2019-02-24T14:16:15.419Z,11.80
2019-02-24T14:17:47.792Z,11.57
2019-02-24T14:19:19.683Z,21.42
2019-02-24T14:20:51.215Z,15.13
2019-02-24T14:22:22.546Z,14.37
2019-02-24T14:23:54.423Z,8.58
2019-02-24T14:25:26.353Z,9.93
2019-02-24T14:26:58.594Z,15.10
2019-02-24T14:28:30.461Z,7.25
2019-02-24T14:30:02.367Z,16.10
2019-02-24T14:31:33.749Z,6.70
2019-02-24T14:33:05.968Z,11.43
2019-02-24T14:34:38.859Z,14.83
2019-02-24T14:36:10.664Z,15.17
2019-02-24T14:37:42.639Z,10.32
2019-02-24T14:39:14.534Z,9.60
2019-02-24T14:40:45.881Z,7.97
2019-02-24T14:42:17.949Z,13.98
2019-02-24T14:43:49.892Z,13.48
2019-02-24T14:45:21.217Z,6.30
2019-02-24T14:46:53.135Z,10.55
2019-02-24T14:48:25.347Z,11.90
2019-02-24T14:49:57.357Z,7.50
2019-02-24T14:51:29.432Z,7.97
2019-02-24T14:53:00.715Z,5.93
2019-02-24T14:54:32.011Z,5.63
2019-02-24T14:56:03.365Z,10.50
2019-02-24T14:57:35.586Z,10.93
2019-02-24T14:59:07.511Z,11.40
2019-02-24T15:00:39.484Z,9.60
2019-02-24T15:02:11.391Z,9.53
2019-02-24T15:03:43.620Z,10.03
2019-02-24T15:05:16.707Z,12.80
2019-02-24T15:06:49.319Z,11.33
2019-02-24T15:08:21.207Z,10.28
2019-02-24T15:09:53.165Z,8.53
2019-02-24T15:11:25.088Z,9.68
2019-02-24T15:12:57.163Z,3.80
2019-02-24T15:14:29.066Z,4.55
2019-02-24T15:16:00.952Z,4.25
2019-02-24T15:17:32.897Z,5.28
2019-02-24T15:19:04.874Z,6.50
2019-02-24T15:20:36.180Z,8.47
2019-02-24T15:22:08.202Z,9.35
2019-02-24T15:23:40.175Z,13.68
2019-02-24T15:25:12.061Z,19.85
2019-02-24T15:26:43.946Z,15.32
2019-02-24T15:28:15.497Z,16.17
2019-02-24T15:29:47.413Z,15.53
2019-02-24T15:31:19.290Z,12.98
2019-02-24T15:32:52.117Z,19.55
2019-02-24T15:34:24.205Z,24.77
2019-02-24T15:35:56.145Z,19.42
2019-02-24T15:37:28.090Z,24.27
2019-02-24T15:39:02.124Z,13.43
2019-02-24T15:40:34.844Z,15.98
2019-02-24T15:42:06.766Z,10.90
2019-02-24T15:43:38.673Z,9.20
2019-02-24T15:45:10.550Z,32.35
2019-02-24T15:46:43.759Z,18.27
2019-02-24T15:48:15.707Z,22.40
2019-02-24T15:49:47.669Z,19.42
2019-02-24T15:51:19.807Z,16.42
2019-02-24T15:52:51.864Z,30.95
2019-02-24T15:54:23.747Z,23.57
2019-02-24T15:55:55.690Z,20.30
2019-02-24T15:57:27.021Z,18.53
2019-02-24T15:58:58.715Z,27.60
2019-02-24T16:00:30.041Z,25.33
2019-02-24T16:02:02.325Z,26.95
2019-02-24T16:03:33.638Z,23.07
2019-02-24T16:05:05.074Z,24.63
2019-02-24T16:06:37.475Z,26.07
2019-02-24T16:08:09.551Z,24.47
2019-02-24T16:09:41.483Z,19.70
2019-02-24T16:11:12.944Z,27.13
2019-02-24T16:12:44.886Z,21.50
2019-02-24T16:14:16.778Z,17.57
2019-02-24T16:15:48.722Z,21.42
2019-02-24T16:17:20.913Z,20.57
2019-02-24T16:18:52.848Z,21.97
2019-02-24T16:21:27.844Z,32.13
2019-02-24T16:23:02.408Z,25.20
2019-02-24T16:24:36.710Z,27.22
2019-02-24T16:26:10.342Z,20.87
2019-02-24T16:27:44.133Z,32.30
2019-02-24T16:29:18.658Z,15.58
2019-02-24T16:30:52.896Z,8.18
2019-02-24T16:32:26.524Z,10.50
2019-02-24T16:34:00.912Z,10.50
2019-02-24T16:35:35.355Z,8.23
2019-02-24T16:37:09.605Z,12.50
2019-02-24T16:38:43.914Z,16.02
2019-02-24T16:40:23.087Z,16.33
2019-02-24T16:41:57.712Z,17.23
2019-02-24T16:43:32.010Z,17.27
2019-02-24T16:45:09.044Z,18.23
2019-02-24T16:46:43.333Z,18.40
2019-02-24T16:48:17.222Z,17.73
2019-02-24T16:49:51.520Z,24.98
2019-02-24T16:51:25.246Z,25.77
2019-02-24T16:52:59.017Z,36.83
2019-02-24T16:54:34.764Z,37.33
2019-02-24T16:56:08.484Z,44.50
2019-02-24T16:57:44.275Z,52.90
2019-02-24T16:59:18.581Z,48.40
2019-02-24T17:00:52.758Z,53.03
2019-02-24T17:02:29.558Z,43.90
2019-02-24T17:04:06.152Z,47.23
2019-02-24T17:05:41.856Z,39.10
2019-02-24T17:07:15.913Z,35.93
2019-02-24T17:09:01.247Z,40.73
2019-02-24T17:10:32.664Z,28.10
2019-02-24T17:12:06.964Z,29.98
2019-02-24T17:13:41.452Z,33.50
2019-02-24T17:15:15.188Z,34.20
2019-02-24T17:16:49.450Z,20.35
2019-02-24T17:18:23.146Z,36.33
2019-02-24T17:19:57.049Z,38.70
2019-02-24T17:21:31.365Z,38.67
2019-02-24T17:23:07.256Z,46.20
2019-02-24T17:24:41.972Z,35.98
2019-02-24T17:26:15.930Z,37.53
2019-02-24T17:27:51.498Z,47.30
2019-02-24T17:29:25.228Z,53.90
2019-02-24T17:30:58.974Z,48.83
2019-02-24T17:32:32.977Z,50.00
2019-02-24T17:34:07.232Z,55.92
2019-02-24T17:35:40.877Z,47.47
2019-02-24T17:37:20.081Z,45.90
2019-02-24T17:38:52.296Z,39.20
2019-02-24T17:40:27.026Z,38.40
2019-02-24T17:42:00.687Z,42.17
2019-02-24T17:43:34.485Z,48.30
2019-02-24T17:45:10.920Z,45.63
2019-02-24T17:46:45.211Z,45.43
2019-02-24T17:48:20.111Z,47.77
2019-02-24T17:49:54.417Z,43.08
2019-02-24T17:51:28.382Z,37.13
2019-02-24T17:53:02.730Z,29.80
2019-02-24T17:54:36.991Z,25.35
2019-02-24T17:56:11.228Z,30.40
2019-02-24T17:57:45.216Z,27.03
2019-02-24T17:59:19.049Z,25.73
2019-02-24T18:00:57.114Z,35.73
2019-02-24T18:02:30.811Z,37.00
2019-02-24T18:04:05.258Z,24.10
2019-02-24T18:05:39.581Z,24.80
2019-02-24T18:07:13.809Z,25.23
2019-02-24T18:08:47.640Z,20.63
2019-02-24T18:10:21.764Z,19.43
2019-02-24T18:11:55.606Z,20.83
2019-02-24T18:13:29.677Z,17.47
2019-02-24T18:15:03.475Z,19.27
2019-02-24T18:16:38.274Z,22.20
2019-02-24T18:18:12.028Z,26.97
2019-02-24T18:19:45.754Z,26.87
2019-02-24T18:21:20.067Z,28.03
2019-02-24T18:22:53.986Z,22.23
2019-02-24T18:24:27.685Z,22.63
2019-02-24T18:26:01.925Z,20.50
2019-02-24T18:27:36.247Z,17.10
2019-02-24T18:29:10.923Z,26.20
2019-02-24T18:30:44.709Z,26.93
2019-02-24T18:32:18.433Z,25.60
2019-02-24T18:33:52.134Z,23.27
2019-02-24T18:35:25.946Z,28.37
2019-02-24T18:36:59.588Z,39.03
2019-02-24T18:38:33.880Z,17.42
2019-02-24T18:40:16.204Z,21.60
2019-02-24T18:41:50.146Z,22.63
2019-02-24T18:43:23.887Z,19.20
2019-02-24T18:44:58.299Z,20.85
2019-02-24T18:46:32.094Z,20.83
2019-02-24T18:48:06.363Z,21.13
2019-02-24T18:49:40.138Z,11.33
2019-02-24T18:51:14.446Z,9.90
2019-02-24T18:52:48.743Z,15.05
2019-02-24T18:54:23.467Z,13.85
2019-02-24T18:55:57.757Z,13.45
2019-02-24T18:57:32.047Z,12.05
2019-02-24T18:59:05.847Z,17.10
2019-02-24T19:00:40.422Z,21.17
2019-02-24T19:02:14.304Z,20.97
2019-02-24T19:03:57.017Z,22.57
2019-02-24T19:05:23.324Z,20.73
2019-02-24T19:06:57.461Z,18.00
2019-02-24T19:08:32.669Z,24.47
2019-02-24T19:10:17.503Z,17.60
2019-02-24T19:11:54.642Z,16.17
2019-02-24T19:13:28.990Z,15.65
2019-02-24T19:15:02.727Z,16.57
2019-02-24T19:16:36.458Z,13.03
2019-02-24T19:18:10.844Z,15.18
2019-02-24T19:19:44.746Z,12.30
2019-02-24T19:21:19.053Z,16.45
2019-02-24T19:22:52.720Z,14.23
2019-02-24T19:24:26.388Z,18.77
2019-02-24T19:26:00.543Z,32.67
2019-02-24T19:27:34.279Z,23.23
2019-02-24T19:29:09.044Z,25.37
2019-02-24T19:30:43.447Z,24.93
2019-02-24T19:32:17.605Z,34.40
2019-02-24T19:33:51.356Z,30.23
2019-02-24T19:35:25.029Z,34.47
2019-02-24T19:36:59.566Z,38.47
2019-02-24T19:38:33.507Z,42.87
2019-02-24T19:40:12.864Z,32.20
2019-02-24T19:41:47.125Z,30.17
2019-02-24T19:43:20.775Z,32.13
2019-02-24T19:44:56.039Z,28.50
2019-02-24T19:46:30.040Z,26.40
2019-02-24T19:48:03.707Z,24.60
2019-02-24T19:49:38.047Z,30.35
2019-02-24T19:51:11.920Z,34.87
2019-02-24T19:52:45.629Z,18.63
2019-02-24T19:54:19.345Z,22.73
2019-02-24T19:55:53.635Z,19.07
2019-02-24T19:57:28.206Z,22.65
2019-02-24T19:59:01.855Z,15.30
2019-02-24T20:00:36.964Z,11.43
2019-02-24T20:02:10.754Z,10.83
2019-02-24T20:03:44.516Z,10.73
2019-02-24T20:05:18.864Z,11.50
2019-02-24T20:06:52.513Z,10.77